Newberry, MI

1:16 PM EDT on September 26, 2017 (GMT -0400)
Luce County

Weather History for KERY - May, 2014

Change the Weather History Date:

Saturday, May 17, 2014

  Actual Average Record
Temperature  
Mean Temperature 38 °F -  
Max Temperature 50 °F 62 °F 83 °F (1962)
Min Temperature 25 °F 39 °F 23 °F (1961)
Degree Days  
Heating Degree Days 28    
Moisture  
Dew Point 30 °F    
Average Humidity 74    
Maximum Humidity 100    
Minimum Humidity 44    
Precipitation  
Precipitation 0.00 in - - ()
Sea Level Pressure  
Sea Level Pressure 30.01 in    
Wind  
Wind Speed 6 mph (SSW)    
Max Wind Speed 20 mph    
Max Gust Speed 24 mph    
Visibility 9 miles    
Events Fog , Rain    
Averages and records for this station are not official NWS values.
T = Trace of Precipitation, MM = Missing Value Source: NWS Daily Summary

Daily Weather History Graph

Daily Weather History Graph

Search for Another Location

Airport or City:

Trip Planner

Search our weather history database for the weather conditions in past years. The results will help you decide how hot, cold, wet, or windy it might be!

Date:

Astronomy

May. 17, 2014 Rise Set
Actual Time 6:06 AM EDT 9:10 PM EDT
Civil Twilight 5:30 AM EDT 9:46 PM EDT
Nautical Twilight 4:44 AM EDT 10:32 PM EDT
Astronomical Twilight 3:49 AM EDT 11:29 PM EDT
Moon No Moon Rise 8:49 AM EDT (5/17)
Length of Visible Light 16h 15m
Length of Day
15h 04m
Waning Gibbous, 89% of the Moon is Illuminated
May 17
Waning Gibbous
May 21
Last Quarter
May 28
New
Jun 5
First Quarter
Jun 13
Full

Hourly Weather History & Observations

Time (EDT) Temp. Windchill Dew Point Humidity Pressure Visibility Wind Dir Wind Speed Gust Speed Precip Events Conditions
12:15 AM 30.9 °F - 28.2 °F 90% 30.02 in 10.0 mi Calm Calm - N/A   Clear
12:35 AM 30.2 °F - 28.2 °F 92% 30.03 in 10.0 mi Calm Calm - N/A   Clear
12:55 AM 28.6 °F 19.3 °F 27.7 °F 96% 30.03 in 10.0 mi NNW 10.4 mph - N/A   Clear
1:14 AM 28.9 °F 22.8 °F 28.2 °F 97% 30.02 in 10.0 mi North 5.8 mph - N/A   Clear
1:35 AM 28.6 °F - 28.2 °F 99% 30.02 in 10.0 mi Calm Calm - N/A   Clear
1:55 AM 28.8 °F 23.7 °F 28.4 °F 99% 30.02 in 10.0 mi North 4.6 mph - N/A   Mostly Cloudy
2:15 AM 29.1 °F 25.4 °F 28.4 °F 97% 30.02 in 10.0 mi North 3.5 mph - N/A   Mostly Cloudy
2:35 AM 29.1 °F 25.4 °F 28.4 °F 97% 30.02 in 10.0 mi North 3.5 mph - N/A   Mostly Cloudy
2:54 AM 28.4 °F - 28.2 °F 99% 30.02 in 10.0 mi Calm Calm - N/A   Overcast
3:15 AM 28.2 °F - 28.0 °F 99% 30.01 in 0.8 mi Calm Calm - N/A   Overcast
3:35 AM 28.0 °F 24.2 °F 27.9 °F 99% 30.02 in 0.2 mi WSW 3.5 mph - N/A Fog Light Freezing Fog
3:55 AM 27.1 °F - 26.8 °F 99% 30.01 in 0.2 mi Calm Calm - N/A Fog Light Freezing Fog
4:15 AM 27.0 °F - 27.0 °F 100% 30.01 in 0.8 mi Calm Calm - N/A   Overcast
4:35 AM 26.2 °F - 26.1 °F 99% 30.01 in 1.2 mi Calm Calm - N/A   Overcast
4:55 AM 25.5 °F - 25.2 °F 99% 30.00 in 4.0 mi Calm Calm - N/A   Scattered Clouds
5:15 AM 26.4 °F - 26.1 °F 99% 30.00 in 10.0 mi Calm Calm - N/A   Clear
5:34 AM 25.3 °F - 24.6 °F 97% 30.00 in 10.0 mi Calm Calm - N/A   Clear
5:55 AM 25.3 °F - 24.6 °F 97% 30.00 in 10.0 mi Calm Calm - N/A   Clear
6:15 AM 25.2 °F - 24.4 °F 97% 30.00 in 10.0 mi Calm Calm - N/A   Clear
6:35 AM 25.5 °F - 25.0 °F 98% 30.01 in 10.0 mi Calm Calm - N/A   Clear
6:55 AM 26.8 °F - 26.1 °F 97% 30.01 in 10.0 mi Calm Calm - N/A   Clear
7:15 AM 28.4 °F - 27.3 °F 96% 30.01 in 10.0 mi Calm Calm - N/A   Clear
7:35 AM 28.6 °F - 27.5 °F 96% 30.00 in 10.0 mi Calm Calm - N/A   Clear
7:55 AM 29.5 °F - 28.6 °F 96% 30.01 in 10.0 mi Calm Calm - N/A   Clear
8:15 AM 31.8 °F - 30.7 °F 96% 30.01 in 10.0 mi Calm Calm - N/A   Clear
8:35 AM 34.2 °F 31.2 °F 31.8 °F 91% 30.01 in 10.0 mi East 3.5 mph - N/A   Clear
8:54 AM 36.3 °F 30.8 °F 31.5 °F 83% 30.01 in 10.0 mi WSW 6.9 mph - N/A   Clear
9:15 AM 38.7 °F 33.6 °F 31.3 °F 75% 30.01 in 10.0 mi WSW 6.9 mph - N/A   Mostly Cloudy
9:35 AM 40.5 °F 35.1 °F 28.6 °F 63% 30.01 in 10.0 mi SW 8.1 mph - N/A   Mostly Cloudy
9:54 AM 41.7 °F 35.2 °F 29.5 °F 62% 30.01 in 10.0 mi WSW 11.5 mph 16.1 mph N/A   Mostly Cloudy
10:15 AM 42.4 °F 35.7 °F 31.3 °F 65% 30.00 in 10.0 mi WSW 12.7 mph 18.4 mph N/A   Mostly Cloudy
10:34 AM 43.3 °F 37.2 °F 32.2 °F 65% 30.00 in 10.0 mi SW 11.5 mph 16.1 mph N/A   Overcast
10:55 AM 43.9 °F 37.5 °F 32.2 °F 63% 30.00 in 10.0 mi SW 12.7 mph 18.4 mph N/A   Overcast
11:15 AM 44.4 °F 38.6 °F 32.5 °F 63% 30.00 in 10.0 mi SW 11.5 mph 17.3 mph N/A   Overcast
11:35 AM 45.5 °F 39.6 °F 34.2 °F 65% 30.00 in 10.0 mi SSW 12.7 mph 20.7 mph N/A   Mostly Cloudy
11:55 AM 45.0 °F 39.7 °F 33.1 °F 63% 30.00 in 10.0 mi SSW 10.4 mph 18.4 mph N/A   Mostly Cloudy
12:15 PM 46.0 °F 40.6 °F 32.7 °F 60% 30.00 in 10.0 mi South 11.5 mph 18.4 mph N/A   Scattered Clouds
12:35 PM 45.3 °F 41.1 °F 33.1 °F 62% 30.00 in 10.0 mi SSW 8.1 mph 18.4 mph N/A   Overcast
12:55 PM 45.1 °F 39.9 °F 35.1 °F 68% 30.00 in 7.0 mi SSW 10.4 mph 17.3 mph N/A   Light Drizzle
1:14 PM 46.9 °F - 35.1 °F 63% 30.00 in 10.0 mi South 9.2 mph 23.0 mph N/A   Mostly Cloudy
1:35 PM 47.3 °F - 33.8 °F 59% 29.99 in 10.0 mi South 11.5 mph 19.6 mph N/A   Scattered Clouds
1:55 PM 47.3 °F - 33.1 °F 58% 29.99 in 10.0 mi South 13.8 mph 24.2 mph N/A   Scattered Clouds
2:14 PM 48.4 °F - 33.6 °F 57% 29.99 in 10.0 mi South 11.5 mph 18.4 mph N/A   Scattered Clouds
2:35 PM 47.8 °F - 32.4 °F 55% 29.99 in 10.0 mi South 12.7 mph 18.4 mph N/A   Mostly Cloudy
2:55 PM 47.7 °F - 32.7 °F 56% 29.99 in 10.0 mi SSW 9.2 mph 18.4 mph N/A   Overcast
3:15 PM 47.3 °F - 32.2 °F 56% 29.99 in 10.0 mi SSW 10.4 mph - N/A   Overcast
3:35 PM 44.4 °F 39.0 °F 35.2 °F 70% 30.01 in 4.0 mi SSW 10.4 mph 20.7 mph N/A Rain Light Rain
3:54 PM 44.6 °F 39.7 °F 36.9 °F 74% 30.00 in 7.0 mi SSW 9.2 mph - N/A Rain Light Rain
4:15 PM 47.5 °F - 36.1 °F 65% 30.00 in 10.0 mi SSW 12.7 mph 18.4 mph N/A   Scattered Clouds
4:35 PM 48.4 °F - 33.3 °F 56% 30.00 in 10.0 mi SSW 6.9 mph 20.7 mph N/A   Clear
4:54 PM 49.3 °F - 32.9 °F 53% 30.00 in 10.0 mi SSW 9.2 mph 18.4 mph N/A   Scattered Clouds
5:15 PM 49.1 °F - 32.0 °F 52% 30.00 in 10.0 mi SSW 12.7 mph 20.7 mph N/A   Mostly Cloudy
5:35 PM 50.2 °F - 30.2 °F 46% 30.00 in 10.0 mi SSW 19.6 mph - N/A   Scattered Clouds
5:54 PM 49.8 °F - 29.8 °F 46% 30.00 in 10.0 mi South 12.7 mph 19.6 mph N/A   Scattered Clouds
6:15 PM 49.3 °F - 30.6 °F 49% 30.00 in 10.0 mi SSW 17.3 mph 21.9 mph N/A   Scattered Clouds
6:35 PM 50.0 °F - 29.5 °F 45% 30.00 in 10.0 mi SSW 16.1 mph 23.0 mph N/A   Clear
6:55 PM 49.1 °F - 28.2 °F 44% 30.01 in 10.0 mi SSW 16.1 mph 24.2 mph N/A   Clear
7:15 PM 48.9 °F - 29.1 °F 46% 30.01 in 10.0 mi SSW 12.7 mph 23.0 mph N/A   Clear
7:34 PM 48.4 °F - 29.8 °F 49% 30.01 in 10.0 mi SSW 16.1 mph 24.2 mph N/A   Clear
7:55 PM 47.5 °F - 30.2 °F 51% 30.01 in 10.0 mi SSW 12.7 mph 17.3 mph N/A   Clear
8:15 PM 46.0 °F 39.6 °F 29.5 °F 52% 30.01 in 10.0 mi SSW 15.0 mph 21.9 mph N/A   Clear
8:34 PM 45.7 °F 38.6 °F 29.1 °F 52% 30.01 in 10.0 mi SSW 17.3 mph 23.0 mph N/A   Clear
8:55 PM 44.6 °F 37.8 °F 29.5 °F 55% 30.01 in 10.0 mi SSW 15.0 mph 23.0 mph N/A   Clear
9:15 PM 43.2 °F 36.6 °F 30.2 °F 60% 30.02 in 10.0 mi SSW 12.7 mph 18.4 mph N/A   Clear
9:35 PM 41.7 °F 35.2 °F 30.9 °F 66% 30.02 in 10.0 mi SSW 11.5 mph - N/A   Clear
9:55 PM 40.5 °F 34.1 °F 31.1 °F 69% 30.02 in 10.0 mi SSW 10.4 mph - N/A   Clear
10:15 PM 39.6 °F 32.5 °F 31.1 °F 72% 30.02 in 10.0 mi SSW 11.5 mph - N/A   Clear
10:35 PM 39.2 °F 32.5 °F 31.1 °F 73% 30.02 in 10.0 mi SSW 10.4 mph - N/A   Clear
10:54 PM 38.5 °F 31.1 °F 31.1 °F 75% 30.02 in 10.0 mi South 11.5 mph - N/A   Clear
11:15 PM 38.7 °F 31.4 °F 31.1 °F 74% 30.02 in 10.0 mi South 11.5 mph - N/A   Clear
11:35 PM 38.7 °F 31.4 °F 30.9 °F 74% 30.01 in 10.0 mi South 11.5 mph - N/A   Clear
11:54 PM 39.0 °F 31.4 °F 30.9 °F 73% 30.02 in 10.0 mi SSW 12.7 mph - N/A   Clear